Moodys, Oklahoma
Current Conditions -  °F | °C
As of 10:55 PM on Sunday 21 Dec 2014 (Local Time) from KTQH Reporting Station
Haze Haze  
Wind Chill: 38°   Ceiling: 600
Heat Index: 43°   Visibility: 5mi
Dew Point: 41°   Wind: 8mph
Humidity: 93%   Direction: 130°SE
Pressure: 29.79"   Gusts: NA
Location:  36.03°N, 94.96°W
Report Text: KTQH 220455Z AUTO 13007KT 5SM BR BKN006 OVC034 06/05 A2979 RMK AO2
Loading
Personal Weather Stations






























Interactive Weather Map New forecast layout! Learn more

10-Day Weather Forecast

Advertisements
Track Severe Weather on mobile